Maran Castor — SXLH — position and weather

sailwx.info

Track history (hours):
 
Tides and Currents Weather Stations Pressure Air Temp Water Temp Dewpoint Dewpoint Depression Visibility Wind Speed Wind Dir Waves Ship Positions

Maran Castor

Last reported at 2015-Apr-19 18:33 UTC. Time now 2015-May-05 01:07 UTC.
Position N 02°03' E 102°09'.
Warning: this ship's position is 15 days out of date.

Length 332 m; draft 11.5 m.

Type: Tanker. MMSI: 239808000.

Date/timePositionNaut miles runAvg speedWind from/ knotsBaromVisibWave heightAir tempDewpointWater temp
2015-Apr-19 18:33N 02°03' E 102°09'1615.6
2015-Apr-19 17:33N 01°54' E 102°22'1514.8
2015-Apr-19 16:33N 01°48' E 102°35'1413.7
2015-Apr-19 15:32N 01°41' E 102°48'1313.1
2015-Apr-19 14:33N 01°34' E 102°58'3313.4
2015-Apr-19 12:05N 01°14' E 103°25'27 9.6
2015-Apr-19 09:14N 01°12' E 103°52'5 6.8
2015-Apr-19 08:33N 01°14' E 103°57'7 2.9
2015-Apr-19 06:05N 01°18' E 104°03'0 0.2
2015-Apr-19 05:23N 01°18' E 104°03'0 0.1
2015-Apr-19 04:29N 01°18' E 104°03'0 0.1
2015-Apr-19 03:05N 01°18' E 104°03'0 0.0
2015-Apr-19 02:23N 01°18' E 104°03'0 0.1
2015-Apr-19 00:29N 01°17' E 104°03'0 0.0
2015-Apr-18 17:29N 01°18' E 104°03'0 0.1
2015-Apr-18 15:26N 01°18' E 104°03'0 0.1
2015-Apr-18 14:29N 01°18' E 104°03'0 0.0
2015-Apr-18 11:23N 01°18' E 104°03'0 0.0
2015-Apr-18 10:29N 01°18' E 104°03'0 0.3
2015-Apr-18 09:17N 01°18' E 104°03'1 0.2
2015-Apr-18 05:32N 01°17' E 104°04'3 3.5
2015-Apr-18 04:33N 01°17' E 104°07'1 0.6
2015-Apr-18 03:30N 01°17' E 104°08'5 5.0
2015-Apr-18 02:31N 01°18' E 104°13'  
2015-Apr-13 01:33N 22°29' E 119°49'1514.6
2015-Apr-13 00:33N 22°42' E 119°54'1615.5
2015-Apr-12 23:32N 22°58' E 119°54'4613.9
2015-Apr-12 20:13N 23°44' E 119°58'913.2
2015-Apr-12 19:33N 23°53' E 119°59'1313.1
2015-Apr-12 18:33N 24°05' E 120°04'2713.6
2015-Apr-12 16:32N 24°32' E 120°12'1413.9
2015-Apr-12 15:32N 24°45' E 120°16'1713.8
2015-Apr-12 14:17N 25°01' E 120°22'24813.7
2015-Apr-11 20:12N 28°19' E 123°09'17113.3
2015-Apr-11 07:18N 31°03' E 124°06'8113.5
2015-Apr-11 01:19N 32°23' E 124°18'5614.0
2015-Apr-10 21:18N 33°19' E 124°19'1013.0
2015-Apr-10 20:29N 33°29' E 124°21'1213.0
2015-Apr-10 19:33N 33°42' E 124°20'1313.1
2015-Apr-10 18:33N 33°55' E 124°19'2713.7
2015-Apr-10 16:33N 34°22' E 124°19'1414.4
2015-Apr-10 15:33N 34°36' E 124°19'1514.9
2015-Apr-10 14:32N 34°52' E 124°19'1515.3
2015-Apr-10 13:31N 35°07' E 124°18'1415.0
2015-Apr-10 12:33N 35°22' E 124°17'1614.7
2015-Apr-10 11:28N 35°37' E 124°19'1314.0
2015-Apr-10 10:33N 35°50' E 124°19'1413.9
2015-Apr-10 09:32N 36°04' E 124°19'1414.2
2015-Apr-10 08:33N 36°18' E 124°19'1414.3
2015-Apr-10 07:33N 36°33' E 124°18'1414.4
2015-Apr-10 06:33N 36°47' E 124°21'1414.5
2015-Apr-10 05:33N 37°01' E 124°19'1414.5
2015-Apr-10 04:33N 37°16' E 124°19'1413.9
2015-Apr-10 03:31N 37°26' E 124°06'1313.5
2015-Apr-10 02:32N 37°33' E 123°52'1412.8
2015-Apr-10 01:27N 37°41' E 123°37'1213.0
2015-Apr-10 00:33N 37°47' E 123°25'1413.4
2015-Apr-09 23:29N 37°55' E 123°10'1313.7
2015-Apr-09 22:34N 38°01' E 122°56'1414.4
2015-Apr-09 21:34N 38°05' E 122°38'1514.6
2015-Apr-09 20:33N 38°09' E 122°20'1414.4
2015-Apr-09 19:33N 38°14' E 122°03'  
Track history (hours):
 
Tides and Currents Weather Stations Pressure Air Temp Water Temp Dewpoint Dewpoint Depression Visibility Wind Speed Wind Dir Waves Ship Positions

Maran Castor

Last reported at 2015-Apr-19 18:33 UTC. Time now 2015-May-05 01:07 UTC.
Position N 02°03' E 102°09'.
Warning: this ship's position is 15 days out of date.

Length 332 m; draft 11.5 m.

Type: Tanker. MMSI: 239808000.

Date/timePositionNaut miles runAvg speedWind from/ knotsBaromVisibWave heightAir tempDewpointWater temp
2015-Apr-19 18:33N 02°03' E 102°09'1615.6
2015-Apr-19 17:33N 01°54' E 102°22'1514.8
2015-Apr-19 16:33N 01°48' E 102°35'1413.7
2015-Apr-19 15:32N 01°41' E 102°48'1313.1
2015-Apr-19 14:33N 01°34' E 102°58'3313.4
2015-Apr-19 12:05N 01°14' E 103°25'27 9.6
2015-Apr-19 09:14N 01°12' E 103°52'5 6.8
2015-Apr-19 08:33N 01°14' E 103°57'7 2.9
2015-Apr-19 06:05N 01°18' E 104°03'0 0.2
2015-Apr-19 05:23N 01°18' E 104°03'0 0.1
2015-Apr-19 04:29N 01°18' E 104°03'0 0.1
2015-Apr-19 03:05N 01°18' E 104°03'0 0.0
2015-Apr-19 02:23N 01°18' E 104°03'0 0.1
2015-Apr-19 00:29N 01°17' E 104°03'0 0.0
2015-Apr-18 17:29N 01°18' E 104°03'0 0.1
2015-Apr-18 15:26N 01°18' E 104°03'0 0.1
2015-Apr-18 14:29N 01°18' E 104°03'0 0.0
2015-Apr-18 11:23N 01°18' E 104°03'0 0.0
2015-Apr-18 10:29N 01°18' E 104°03'0 0.3
2015-Apr-18 09:17N 01°18' E 104°03'1 0.2
2015-Apr-18 05:32N 01°17' E 104°04'3 3.5
2015-Apr-18 04:33N 01°17' E 104°07'1 0.6
2015-Apr-18 03:30N 01°17' E 104°08'5 5.0
2015-Apr-18 02:31N 01°18' E 104°13'  
2015-Apr-13 01:33N 22°29' E 119°49'1514.6
2015-Apr-13 00:33N 22°42' E 119°54'1615.5
2015-Apr-12 23:32N 22°58' E 119°54'4613.9
2015-Apr-12 20:13N 23°44' E 119°58'913.2
2015-Apr-12 19:33N 23°53' E 119°59'1313.1
2015-Apr-12 18:33N 24°05' E 120°04'2713.6
2015-Apr-12 16:32N 24°32' E 120°12'1413.9
2015-Apr-12 15:32N 24°45' E 120°16'1713.8
2015-Apr-12 14:17N 25°01' E 120°22'24813.7
2015-Apr-11 20:12N 28°19' E 123°09'17113.3
2015-Apr-11 07:18N 31°03' E 124°06'8113.5
2015-Apr-11 01:19N 32°23' E 124°18'5614.0
2015-Apr-10 21:18N 33°19' E 124°19'1013.0
2015-Apr-10 20:29N 33°29' E 124°21'1213.0
2015-Apr-10 19:33N 33°42' E 124°20'1313.1
2015-Apr-10 18:33N 33°55' E 124°19'2713.7
2015-Apr-10 16:33N 34°22' E 124°19'1414.4
2015-Apr-10 15:33N 34°36' E 124°19'1514.9
2015-Apr-10 14:32N 34°52' E 124°19'1515.3
2015-Apr-10 13:31N 35°07' E 124°18'1415.0
2015-Apr-10 12:33N 35°22' E 124°17'1614.7
2015-Apr-10 11:28N 35°37' E 124°19'1314.0
2015-Apr-10 10:33N 35°50' E 124°19'1413.9
2015-Apr-10 09:32N 36°04' E 124°19'1414.2
2015-Apr-10 08:33N 36°18' E 124°19'1414.3
2015-Apr-10 07:33N 36°33' E 124°18'1414.4
2015-Apr-10 06:33N 36°47' E 124°21'1414.5
2015-Apr-10 05:33N 37°01' E 124°19'1414.5
2015-Apr-10 04:33N 37°16' E 124°19'1413.9
2015-Apr-10 03:31N 37°26' E 124°06'1313.5
2015-Apr-10 02:32N 37°33' E 123°52'1412.8
2015-Apr-10 01:27N 37°41' E 123°37'1213.0
2015-Apr-10 00:33N 37°47' E 123°25'1413.4
2015-Apr-09 23:29N 37°55' E 123°10'1313.7
2015-Apr-09 22:34N 38°01' E 122°56'1414.4
2015-Apr-09 21:34N 38°05' E 122°38'1514.6
2015-Apr-09 20:33N 38°09' E 122°20'1414.4
2015-Apr-09 19:33N 38°14' E 122°03'  

Dump ship's entire track history